createdAt,value
2022-11-04T00:02:06.417Z,33.55
2022-11-04T00:05:08.705Z,36.63
2022-11-04T00:08:25.712Z,31.47
2022-11-04T00:11:47.282Z,32.20
2022-11-04T00:14:49.445Z,31.63
2022-11-04T00:17:51.584Z,32.97
2022-11-04T00:21:15.249Z,32.75
2022-11-04T00:24:35.788Z,30.93
2022-11-04T00:27:56.571Z,32.47
2022-11-04T00:31:19.807Z,33.10
2022-11-04T00:34:22.111Z,33.85
2022-11-04T00:37:24.285Z,33.15
2022-11-04T00:40:26.414Z,34.87
2022-11-04T00:43:28.597Z,34.08
2022-11-04T00:46:32.399Z,34.30
2022-11-04T00:49:34.573Z,33.97
2022-11-04T00:52:36.707Z,33.75
2022-11-04T00:55:38.941Z,36.80
2022-11-04T00:58:41.158Z,35.92
2022-11-04T01:01:43.451Z,45.28
2022-11-04T01:04:47.275Z,40.67
2022-11-04T01:07:49.365Z,40.83
2022-11-04T01:10:51.524Z,41.17
2022-11-04T01:13:54.332Z,39.50
2022-11-04T01:16:56.512Z,41.42
2022-11-04T01:19:58.685Z,43.30
2022-11-04T01:23:00.836Z,44.95
2022-11-04T01:26:08.076Z,43.07
2022-11-04T01:29:10.258Z,39.63
2022-11-04T01:32:12.456Z,43.88
2022-11-04T01:35:14.610Z,40.28
2022-11-04T01:38:17.499Z,43.83
2022-11-04T01:41:23.602Z,44.93
2022-11-04T01:44:48.744Z,44.42
2022-11-04T01:47:59.726Z,41.92
2022-11-04T01:51:02.014Z,41.35
2022-11-04T01:54:05.206Z,43.13
2022-11-04T01:57:10.054Z,41.50
2022-11-04T02:00:12.740Z,40.72
2022-11-04T02:03:18.483Z,38.85
2022-11-04T02:06:21.396Z,40.67
2022-11-04T02:09:24.694Z,35.75
2022-11-04T02:12:45.233Z,37.67
2022-11-04T02:16:01.119Z,35.67
2022-11-04T02:19:31.353Z,39.53
2022-11-04T02:22:33.849Z,38.03
2022-11-04T02:25:55.614Z,37.13
2022-11-04T02:29:39.621Z,40.53
2022-11-04T02:32:41.740Z,37.08
2022-11-04T02:36:04.745Z,41.25
2022-11-04T02:39:15.420Z,37.80
2022-11-04T02:42:26.346Z,36.83
2022-11-04T02:45:32.740Z,38.27
2022-11-04T02:48:47.147Z,38.78
2022-11-04T02:51:53.703Z,37.85
2022-11-04T02:55:03.450Z,40.58
2022-11-04T02:58:10.051Z,41.60
2022-11-04T03:01:13.901Z,42.40
2022-11-04T03:04:19.902Z,43.67
2022-11-04T03:07:28.920Z,40.78
2022-11-04T03:10:42.027Z,37.45
2022-11-04T03:13:44.983Z,39.72
2022-11-04T03:16:51.017Z,35.67
2022-11-04T03:19:57.913Z,40.33
2022-11-04T03:23:00.415Z,40.65
2022-11-04T03:26:13.594Z,38.45
2022-11-04T03:29:27.204Z,40.10
2022-11-04T03:32:42.993Z,38.27
2022-11-04T03:35:45.280Z,41.20
2022-11-04T03:38:47.605Z,41.22
2022-11-04T03:41:53.933Z,44.33
2022-11-04T03:44:56.823Z,39.33
2022-11-04T03:47:59.313Z,41.47
2022-11-04T03:51:01.828Z,42.42
2022-11-04T03:54:04.457Z,43.83
2022-11-04T03:57:22.864Z,38.95
2022-11-04T04:00:28.010Z,42.28
2022-11-04T04:03:43.926Z,42.43
2022-11-04T04:06:46.652Z,42.25
2022-11-04T04:10:00.128Z,41.92
2022-11-04T04:13:05.978Z,42.92
2022-11-04T04:16:11.702Z,39.63
2022-11-04T04:19:20.246Z,42.77
2022-11-04T04:22:29.337Z,42.65
2022-11-04T04:25:50.523Z,42.08
2022-11-04T04:28:54.280Z,45.13
2022-11-04T04:31:58.727Z,52.58
2022-11-04T04:35:19.511Z,50.40
2022-11-04T04:38:44.420Z,46.72
2022-11-04T04:42:06.509Z,49.13
2022-11-04T04:45:10.497Z,44.60
2022-11-04T04:48:14.136Z,42.97
2022-11-04T04:51:16.359Z,42.83
2022-11-04T04:54:18.966Z,39.75
2022-11-04T04:57:21.214Z,45.55
2022-11-04T05:00:24.312Z,44.20
2022-11-04T05:03:26.590Z,47.83
2022-11-04T05:06:28.762Z,45.67
2022-11-04T05:09:30.901Z,45.67
2022-11-04T05:12:54.176Z,52.22
2022-11-04T05:15:58.009Z,47.65
2022-11-04T05:19:00.157Z,48.53
2022-11-04T05:22:02.485Z,46.20
2022-11-04T05:25:05.034Z,47.47
2022-11-04T05:28:08.184Z,43.78
2022-11-04T05:31:10.733Z,54.22
2022-11-04T05:34:13.674Z,49.90
2022-11-04T05:37:15.787Z,47.93
2022-11-04T05:40:17.998Z,43.80
2022-11-04T05:43:20.123Z,42.25
2022-11-04T05:46:22.794Z,46.75
2022-11-04T05:49:24.932Z,43.95
2022-11-04T05:52:27.065Z,45.90
2022-11-04T05:55:29.392Z,43.22
2022-11-04T05:58:31.583Z,44.75
2022-11-04T06:01:36.406Z,47.20
2022-11-04T06:04:43.205Z,52.78
2022-11-04T06:07:45.371Z,47.27
2022-11-04T06:10:47.498Z,49.58
2022-11-04T06:13:49.950Z,48.20
2022-11-04T06:16:52.076Z,48.92
2022-11-04T06:19:54.741Z,49.28
2022-11-04T06:22:57.838Z,50.37
2022-11-04T06:26:00.836Z,49.03
2022-11-04T06:29:04.458Z,49.95
2022-11-04T06:32:20.216Z,45.97
2022-11-04T06:35:22.359Z,47.33
2022-11-04T06:38:24.732Z,55.03
2022-11-04T06:41:26.908Z,50.17
2022-11-04T06:44:29.173Z,48.47
2022-11-04T06:47:31.339Z,47.35
2022-11-04T06:50:34.409Z,45.63
2022-11-04T06:53:36.746Z,48.93
2022-11-04T06:56:39.530Z,43.67
2022-11-04T06:59:41.827Z,51.08
2022-11-04T07:02:44.188Z,45.67
2022-11-04T07:05:46.479Z,40.35
2022-11-04T07:08:49.978Z,41.03
2022-11-04T07:11:52.170Z,42.53
2022-11-04T07:14:56.443Z,38.72
2022-11-04T07:17:59.698Z,38.67
2022-11-04T07:21:07.062Z,42.58
2022-11-04T07:24:11.895Z,42.70
2022-11-04T07:27:14.031Z,42.22
2022-11-04T07:30:16.261Z,41.20
2022-11-04T07:33:18.532Z,40.65
2022-11-04T07:36:21.257Z,42.88
2022-11-04T07:39:24.351Z,40.27
2022-11-04T07:42:27.338Z,35.30
2022-11-04T07:45:31.864Z,37.30
2022-11-04T07:48:37.009Z,37.40
2022-11-04T07:51:39.896Z,38.90
2022-11-04T07:54:42.887Z,41.90
2022-11-04T07:57:46.694Z,37.60
2022-11-04T08:00:50.298Z,41.90
2022-11-04T08:03:53.392Z,39.67
2022-11-04T08:06:56.389Z,37.42
2022-11-04T08:09:59.374Z,40.03
2022-11-04T08:13:02.254Z,39.45
2022-11-04T08:16:07.611Z,42.97
2022-11-04T08:19:10.285Z,43.38
2022-11-04T08:22:12.459Z,43.47
2022-11-04T08:25:14.649Z,46.37
2022-11-04T08:28:19.857Z,43.45
2022-11-04T08:31:30.722Z,45.58
2022-11-04T08:34:33.099Z,43.53
2022-11-04T08:37:35.357Z,42.22
2022-11-04T08:40:37.560Z,41.10
2022-11-04T08:43:39.787Z,39.88
2022-11-04T08:46:43.457Z,43.78
2022-11-04T08:49:45.659Z,40.15
2022-11-04T08:52:48.246Z,39.85
2022-11-04T08:55:50.443Z,44.63
2022-11-04T08:58:53.533Z,44.50
2022-11-04T09:01:55.762Z,42.53
2022-11-04T09:04:58.079Z,41.53
2022-11-04T09:08:01.883Z,44.72
2022-11-04T09:11:10.062Z,40.90
2022-11-04T09:14:12.818Z,43.25
2022-11-04T09:17:15.351Z,42.17
2022-11-04T09:20:17.542Z,43.85
2022-11-04T09:23:19.710Z,41.40
2022-11-04T09:26:23.442Z,41.20
2022-11-04T09:29:25.612Z,42.95
2022-11-04T09:32:27.821Z,45.00
2022-11-04T09:35:30.235Z,44.60
2022-11-04T09:38:32.556Z,44.20
2022-11-04T09:41:40.966Z,46.40
2022-11-04T09:45:20.047Z,45.85
2022-11-04T09:48:24.771Z,45.83
2022-11-04T09:51:52.635Z,44.92
2022-11-04T09:55:09.230Z,53.38
2022-11-04T09:58:13.528Z,53.87
2022-11-04T10:01:41.685Z,55.58
2022-11-04T10:04:50.781Z,59.08
2022-11-04T10:08:16.553Z,57.53
2022-11-04T10:11:28.959Z,60.47
2022-11-04T10:15:03.582Z,56.97
2022-11-04T10:18:31.681Z,57.55
2022-11-04T10:21:44.217Z,59.10
2022-11-04T10:24:46.394Z,58.33
2022-11-04T10:27:48.994Z,59.08
2022-11-04T10:30:52.117Z,66.27
2022-11-04T10:33:58.594Z,60.28
2022-11-04T10:37:00.863Z,63.47
2022-11-04T10:40:21.185Z,61.15
2022-11-04T10:43:34.711Z,62.35
2022-11-04T10:47:11.914Z,64.70
2022-11-04T10:50:29.822Z,58.40
2022-11-04T10:53:33.366Z,60.92
2022-11-04T10:56:43.796Z,60.50
2022-11-04T10:59:59.089Z,64.45
2022-11-04T11:03:01.310Z,67.77
2022-11-04T11:06:20.109Z,60.83
2022-11-04T11:09:29.589Z,67.78
2022-11-04T11:12:50.682Z,68.80
2022-11-04T11:16:19.283Z,66.60
2022-11-04T11:19:25.036Z,68.80
2022-11-04T11:22:33.958Z,64.03
2022-11-04T11:25:49.205Z,69.65
2022-11-04T11:29:02.355Z,64.25
2022-11-04T11:32:05.226Z,68.25
2022-11-04T11:35:16.165Z,70.03
2022-11-04T11:38:25.819Z,72.63
2022-11-04T11:41:31.740Z,70.63
2022-11-04T11:44:35.016Z,74.18
2022-11-04T11:47:38.589Z,69.88
2022-11-04T11:50:56.765Z,72.90
2022-11-04T11:54:23.254Z,71.47
2022-11-04T11:57:31.559Z,68.57
2022-11-04T12:00:40.199Z,64.07
2022-11-04T12:10:58.389Z,64.10
2022-11-04T12:14:10.568Z,62.55
2022-11-04T12:17:48.624Z,63.97
2022-11-04T12:20:59.749Z,62.83
2022-11-04T12:24:10.884Z,60.53
2022-11-04T12:27:50.881Z,64.45
2022-11-04T12:31:11.060Z,62.72
2022-11-04T12:34:32.057Z,65.95
2022-11-04T12:37:48.942Z,61.65
2022-11-04T12:41:42.232Z,58.97
2022-11-04T12:45:17.884Z,61.80
2022-11-04T12:48:44.863Z,58.42
2022-11-04T12:51:50.292Z,54.05
2022-11-04T12:55:22.845Z,54.83
2022-11-04T12:58:28.059Z,58.23
2022-11-04T13:01:53.777Z,56.20
2022-11-04T13:05:00.982Z,56.17
2022-11-04T13:08:14.331Z,52.10
2022-11-04T13:11:40.686Z,53.38
2022-11-04T13:15:02.679Z,54.13
2022-11-04T13:18:08.390Z,50.55
2022-11-04T13:21:19.913Z,48.42
2022-11-04T13:24:33.398Z,51.33
2022-11-04T13:27:45.403Z,52.92
2022-11-04T13:31:17.939Z,47.67
2022-11-04T13:34:37.493Z,47.10
2022-11-04T13:37:47.998Z,48.70
2022-11-04T13:41:06.516Z,50.17
2022-11-04T13:44:36.110Z,48.22
2022-11-04T13:47:53.426Z,45.77
2022-11-04T13:50:59.305Z,48.22
2022-11-04T13:54:01.790Z,49.90
2022-11-04T13:57:11.114Z,46.13
2022-11-04T14:00:16.859Z,44.75
2022-11-04T14:03:22.931Z,44.40
2022-11-04T14:06:50.085Z,46.17
2022-11-04T14:09:54.760Z,52.05
2022-11-04T14:13:35.196Z,45.72
2022-11-04T14:16:39.101Z,51.58
2022-11-04T14:19:57.477Z,43.40
2022-11-04T14:23:03.838Z,47.22
2022-11-04T14:26:08.296Z,44.55
2022-11-04T14:29:30.707Z,44.85
2022-11-04T14:32:38.247Z,44.30
2022-11-04T14:35:41.357Z,43.73
2022-11-04T14:38:44.042Z,45.50
2022-11-04T14:41:59.533Z,47.72
2022-11-04T14:45:01.956Z,46.72
2022-11-04T14:48:18.353Z,49.33
2022-11-04T14:51:30.394Z,46.27
2022-11-04T14:54:36.833Z,46.60
2022-11-04T14:57:39.307Z,46.30
2022-11-04T15:00:50.620Z,50.05
2022-11-04T15:07:37.263Z,58.30
2022-11-04T15:10:39.465Z,76.38
2022-11-04T15:13:50.419Z,58.08
2022-11-04T15:16:55.241Z,52.83
2022-11-04T15:20:00.835Z,82.82
2022-11-04T15:23:04.370Z,73.57
2022-11-04T15:26:06.642Z,60.08
2022-11-04T15:29:11.489Z,59.88
2022-11-04T15:32:17.374Z,62.63
2022-11-04T15:35:20.030Z,81.70
2022-11-04T15:38:25.067Z,74.43
2022-11-04T15:41:48.236Z,70.70
2022-11-04T15:44:52.872Z,67.07
2022-11-04T15:48:30.560Z,66.68
2022-11-04T15:51:42.586Z,64.90
2022-11-04T15:54:47.881Z,63.93
2022-11-04T15:57:50.401Z,70.75
2022-11-04T16:00:54.764Z,64.13
2022-11-04T16:03:59.308Z,62.10
2022-11-04T16:07:05.422Z,63.38
2022-11-04T16:10:30.563Z,63.60
2022-11-04T16:13:32.844Z,63.08
2022-11-04T16:16:35.241Z,63.05
2022-11-04T16:19:37.624Z,71.53
2022-11-04T16:22:40.801Z,73.07
2022-11-04T16:25:43.111Z,65.67
2022-11-04T16:28:45.270Z,71.18
2022-11-04T16:32:08.218Z,70.85
2022-11-04T16:35:34.195Z,73.97
2022-11-04T16:38:36.872Z,79.97
2022-11-04T16:41:40.959Z,79.13
2022-11-04T16:45:01.704Z,87.22
2022-11-04T16:48:05.128Z,79.22
2022-11-04T16:51:19.724Z,81.70
2022-11-04T16:54:24.997Z,82.38
2022-11-04T16:57:28.706Z,74.87
2022-11-04T17:00:45.368Z,75.80
2022-11-04T17:03:49.019Z,80.72
2022-11-04T17:06:52.522Z,88.63
2022-11-04T17:09:55.508Z,80.25
2022-11-04T17:12:58.912Z,90.17
2022-11-04T17:16:02.416Z,91.38
2022-11-04T17:19:07.347Z,88.70
2022-11-04T17:22:15.585Z,100.00
2022-11-04T17:25:22.412Z,112.75
2022-11-04T17:28:26.866Z,122.03
2022-11-04T17:31:29.418Z,100.95
2022-11-04T17:34:32.037Z,108.03
2022-11-04T17:37:35.240Z,86.70
2022-11-04T17:40:58.737Z,85.85
2022-11-04T17:44:03.825Z,88.30
2022-11-04T17:47:06.159Z,84.65
2022-11-04T17:50:09.061Z,90.95
2022-11-04T17:53:11.779Z,86.35
2022-11-04T17:56:18.392Z,82.47
2022-11-04T17:59:20.653Z,83.47
2022-11-04T18:02:22.872Z,78.78
2022-11-04T18:05:25.571Z,72.00
2022-11-04T18:08:29.043Z,96.90
2022-11-04T18:11:50.161Z,85.35
2022-11-04T18:14:52.693Z,77.73
2022-11-04T18:17:55.786Z,74.72
2022-11-04T18:21:04.030Z,75.63
2022-11-04T18:24:07.616Z,69.40
2022-11-04T18:27:10.625Z,69.95
2022-11-04T18:30:13.480Z,72.10
2022-11-04T18:33:16.048Z,67.05
2022-11-04T18:36:19.035Z,69.88
2022-11-04T18:39:22.067Z,75.70
2022-11-04T18:42:24.821Z,70.53
2022-11-04T18:45:27.487Z,106.77
2022-11-04T18:48:30.030Z,76.53
2022-11-04T18:51:32.765Z,79.28
2022-11-04T18:54:37.716Z,88.07
2022-11-04T18:57:42.330Z,79.00
2022-11-04T19:00:44.961Z,78.27
2022-11-04T19:03:47.962Z,74.63
2022-11-04T19:06:50.286Z,70.30
2022-11-04T19:09:53.644Z,80.40
2022-11-04T19:13:14.968Z,73.80
2022-11-04T19:16:18.277Z,70.60
2022-11-04T19:19:21.347Z,66.15
2022-11-04T19:22:24.086Z,72.75
2022-11-04T19:25:26.664Z,73.95
2022-11-04T19:28:44.672Z,74.78
2022-11-04T19:31:50.269Z,73.70
2022-11-04T19:34:52.775Z,74.35
2022-11-04T19:37:56.880Z,75.05
2022-11-04T19:41:07.856Z,72.55
2022-11-04T19:44:12.733Z,74.90
2022-11-04T19:47:14.979Z,72.63
2022-11-04T19:50:18.671Z,72.50
2022-11-04T19:53:21.966Z,73.43
2022-11-04T19:56:25.367Z,80.15
2022-11-04T19:59:27.923Z,77.88
2022-11-04T20:02:30.520Z,85.70
2022-11-04T20:05:38.740Z,80.75
2022-11-04T20:08:42.622Z,88.10
2022-11-04T20:12:03.486Z,103.80
2022-11-04T20:15:06.778Z,127.93
2022-11-04T20:18:09.968Z,141.27
2022-11-04T20:21:13.800Z,90.32
2022-11-04T20:24:16.498Z,85.22
2022-11-04T20:27:19.558Z,94.70
2022-11-04T20:30:22.645Z,87.45
2022-11-04T20:33:24.864Z,88.97
2022-11-04T20:36:29.359Z,91.15
2022-11-04T20:39:31.873Z,94.43
2022-11-04T20:42:34.608Z,85.05
2022-11-04T20:45:38.478Z,90.03
2022-11-04T20:48:41.595Z,89.47
2022-11-04T20:51:50.156Z,91.00
2022-11-04T20:54:53.980Z,90.63
2022-11-04T20:57:56.963Z,95.22
2022-11-04T21:01:04.281Z,113.55
2022-11-04T21:04:15.005Z,87.60
2022-11-04T21:07:18.417Z,82.38
2022-11-04T21:10:21.281Z,86.18
2022-11-04T21:13:23.580Z,88.15
2022-11-04T21:16:25.973Z,85.07
2022-11-04T21:19:28.514Z,80.17
2022-11-04T21:22:32.381Z,87.43
2022-11-04T21:25:44.724Z,120.38
2022-11-04T21:28:47.207Z,96.13
2022-11-04T21:31:49.403Z,107.85
2022-11-04T21:34:51.901Z,95.27
2022-11-04T21:37:54.536Z,108.57
2022-11-04T21:41:08.492Z,91.40
2022-11-04T21:44:13.184Z,98.00
2022-11-04T21:47:15.436Z,91.22
2022-11-04T21:50:18.422Z,81.87
2022-11-04T21:53:20.747Z,83.70
2022-11-04T21:56:26.158Z,82.18
2022-11-04T21:59:28.826Z,88.38
2022-11-04T22:02:31.345Z,85.43
2022-11-04T22:05:33.525Z,84.90
2022-11-04T22:08:36.402Z,89.22
2022-11-04T22:11:39.874Z,90.93
2022-11-04T22:14:42.083Z,79.25
2022-11-04T22:17:44.204Z,79.07
2022-11-04T22:20:46.631Z,74.93
2022-11-04T22:23:49.485Z,75.03
2022-11-04T22:26:51.812Z,74.70
2022-11-04T22:29:53.972Z,70.78
2022-11-04T22:32:56.215Z,71.20
2022-11-04T22:35:58.390Z,72.43
2022-11-04T22:39:00.677Z,71.55
2022-11-04T22:42:02.812Z,75.45
2022-11-04T22:45:05.431Z,81.35
2022-11-04T22:48:07.890Z,77.32
2022-11-04T22:51:10.455Z,82.57
2022-11-04T22:54:12.679Z,93.38
2022-11-04T22:57:14.865Z,94.18
2022-11-04T23:00:17.067Z,87.55
2022-11-04T23:03:19.329Z,93.45
2022-11-04T23:06:21.649Z,97.57
2022-11-04T23:09:23.810Z,109.43
2022-11-04T23:12:44.292Z,99.35
2022-11-04T23:16:04.979Z,94.47
2022-11-04T23:19:07.099Z,97.75
2022-11-04T23:22:28.050Z,96.17
2022-11-04T23:25:30.365Z,90.40
2022-11-04T23:28:51.229Z,94.38
2022-11-04T23:31:53.533Z,93.70
2022-11-04T23:35:13.940Z,95.43
2022-11-04T23:38:16.408Z,96.10
2022-11-04T23:41:37.646Z,89.25
2022-11-04T23:44:58.284Z,87.70
2022-11-04T23:48:18.874Z,88.18
2022-11-04T23:51:40.164Z,92.32
2022-11-04T23:55:01.279Z,89.70
2022-11-04T23:58:21.966Z,63.60
